createdAt,value
2019-06-20T00:00:16.967Z,44.92
2019-06-20T00:01:16.963Z,45.11
2019-06-20T00:02:16.952Z,45.01
2019-06-20T00:03:16.931Z,44.81
2019-06-20T00:04:16.933Z,45.21
2019-06-20T00:05:16.915Z,45.41
2019-06-20T00:06:16.907Z,45.51
2019-06-20T00:07:16.894Z,46.01
2019-06-20T00:08:16.879Z,47.60
2019-06-20T00:09:16.878Z,56.44
2019-06-20T00:10:16.861Z,56.89
2019-06-20T00:11:16.850Z,58.22
2019-06-20T00:12:16.836Z,59.23
2019-06-20T00:13:16.826Z,59.96
2019-06-20T00:14:16.830Z,63.28
2019-06-20T00:15:16.810Z,62.18
2019-06-20T00:16:16.788Z,60.69
2019-06-20T00:17:16.786Z,63.98
2019-06-20T00:18:16.775Z,65.31
2019-06-20T00:19:16.773Z,65.41
2019-06-20T00:20:16.750Z,64.41
2019-06-20T00:21:16.745Z,65.61
2019-06-20T00:22:16.737Z,65.80
2019-06-20T00:23:16.734Z,64.51
2019-06-20T00:24:16.710Z,65.61
2019-06-20T00:25:16.708Z,63.91
2019-06-20T00:26:16.686Z,66.60
2019-06-20T00:27:16.677Z,67.90
2019-06-20T00:28:16.664Z,64.61
2019-06-20T00:29:16.688Z,61.35
2019-06-20T00:30:16.643Z,59.85
2019-06-20T00:31:16.626Z,58.25
2019-06-20T00:32:16.621Z,60.42
2019-06-20T00:33:16.613Z,62.71
2019-06-20T00:34:16.603Z,63.41
2019-06-20T00:35:16.600Z,62.41
2019-06-20T00:36:16.599Z,64.01
2019-06-20T00:37:16.566Z,63.91
2019-06-20T00:38:16.567Z,63.41
2019-06-20T00:39:16.538Z,63.31
2019-06-20T00:40:16.533Z,63.41
2019-06-20T00:41:16.544Z,63.91
2019-06-20T00:42:16.511Z,64.61
2019-06-20T00:43:18.252Z,64.81
2019-06-20T00:44:16.491Z,65.41
2019-06-20T00:45:16.492Z,64.78
2019-06-20T00:46:16.481Z,64.37
2019-06-20T00:47:16.458Z,65.27
2019-06-20T00:48:16.442Z,66.90
2019-06-20T00:49:16.435Z,63.01
2019-06-20T00:50:16.424Z,63.21
2019-06-20T00:51:16.419Z,62.98
2019-06-20T00:52:16.398Z,62.48
2019-06-20T00:53:16.390Z,60.99
2019-06-20T00:54:16.397Z,60.59
2019-06-20T00:55:16.386Z,66.77
2019-06-20T00:56:16.370Z,67.66
2019-06-20T00:57:16.350Z,66.97
2019-06-20T00:58:16.337Z,67.86
2019-06-20T00:59:16.322Z,67.60
2019-06-20T01:00:16.315Z,67.20
2019-06-20T01:01:16.354Z,67.80
2019-06-20T01:02:16.299Z,66.20
2019-06-20T01:03:16.311Z,61.85
2019-06-20T01:04:16.275Z,62.15
2019-06-20T01:05:16.262Z,61.32
2019-06-20T01:06:16.270Z,60.02
2019-06-20T01:07:16.244Z,60.12
2019-06-20T01:08:16.229Z,58.80
2019-06-20T01:09:16.258Z,57.90
2019-06-20T01:10:16.217Z,56.60
2019-06-20T01:11:16.199Z,56.40
2019-06-20T01:12:16.192Z,54.81
2019-06-20T01:13:32.286Z,54.71
2019-06-20T01:14:17.186Z,54.91
2019-06-20T01:15:16.152Z,55.58
2019-06-20T01:16:16.138Z,54.61
2019-06-20T01:17:16.154Z,55.71
2019-06-20T01:18:16.121Z,55.41
2019-06-20T01:19:16.115Z,56.68
2019-06-20T01:20:16.097Z,57.10
2019-06-20T01:21:16.091Z,57.80
2019-06-20T01:22:16.077Z,57.70
2019-06-20T01:23:16.072Z,57.40
2019-06-20T01:24:16.052Z,58.72
2019-06-20T01:25:16.047Z,58.70
2019-06-20T01:26:16.041Z,60.52
2019-06-20T01:27:16.025Z,61.02
2019-06-20T01:28:16.019Z,60.62
2019-06-20T01:29:16.015Z,60.72
2019-06-20T01:30:15.989Z,61.55
2019-06-20T01:31:15.986Z,61.85
2019-06-20T01:32:15.975Z,61.94
2019-06-20T01:33:15.994Z,61.55
2019-06-20T01:34:15.945Z,62.15
2019-06-20T01:35:15.942Z,61.38
2019-06-20T01:36:15.924Z,61.08
2019-06-20T01:37:15.921Z,63.10
2019-06-20T01:38:15.906Z,62.50
2019-06-20T01:39:15.914Z,62.60
2019-06-20T01:40:15.886Z,62.90
2019-06-20T01:41:15.870Z,62.93
2019-06-20T01:42:15.863Z,63.63
2019-06-20T01:43:15.852Z,63.53
2019-06-20T01:44:15.859Z,62.96
2019-06-20T01:45:15.828Z,64.16
2019-06-20T01:46:15.817Z,64.43
2019-06-20T01:47:15.808Z,64.26
2019-06-20T01:48:15.802Z,64.23
2019-06-20T01:49:15.798Z,64.43
2019-06-20T01:50:15.771Z,63.46
2019-06-20T01:51:15.762Z,64.16
2019-06-20T01:52:15.782Z,64.36
2019-06-20T01:53:15.737Z,65.26
2019-06-20T01:54:15.762Z,64.76
2019-06-20T01:55:15.717Z,64.86
2019-06-20T01:56:15.704Z,64.06
2019-06-20T01:57:15.695Z,64.86
2019-06-20T01:58:15.684Z,65.46
2019-06-20T01:59:15.673Z,65.46
2019-06-20T02:00:15.679Z,65.46
2019-06-20T02:01:15.661Z,65.79
2019-06-20T02:02:15.641Z,65.79
2019-06-20T02:03:15.631Z,66.79
2019-06-20T02:04:15.614Z,66.79
2019-06-20T02:05:15.619Z,66.99
2019-06-20T02:06:15.607Z,66.69
2019-06-20T02:07:15.588Z,66.49
2019-06-20T02:08:15.583Z,67.32
2019-06-20T02:09:15.558Z,66.39
2019-06-20T02:10:15.547Z,67.52
2019-06-20T02:11:15.550Z,67.52
2019-06-20T02:12:15.535Z,67.43
2019-06-20T02:13:15.514Z,67.32
2019-06-20T02:14:15.509Z,67.72
2019-06-20T02:15:15.497Z,68.32
2019-06-20T02:16:15.613Z,68.02
2019-06-20T02:17:15.478Z,67.82
2019-06-20T02:18:15.517Z,67.82
2019-06-20T02:19:15.450Z,67.52
2019-06-20T02:20:15.446Z,68.26
2019-06-20T02:21:15.430Z,67.66
2019-06-20T02:22:15.442Z,67.55
2019-06-20T02:23:15.406Z,68.66
2019-06-20T02:24:15.392Z,68.55
2019-06-20T02:25:15.465Z,68.26
2019-06-20T02:26:15.372Z,68.66
2019-06-20T02:27:15.364Z,67.55
2019-06-20T02:28:15.354Z,68.09
2019-06-20T02:29:15.343Z,68.99
2019-06-20T02:30:15.327Z,68.99
2019-06-20T02:31:15.351Z,69.09
2019-06-20T02:32:15.312Z,69.06
2019-06-20T02:33:15.296Z,69.16
2019-06-20T02:34:15.309Z,68.76
2019-06-20T02:35:15.277Z,68.76
2019-06-20T02:36:15.270Z,68.55
2019-06-20T02:37:15.265Z,68.46
2019-06-20T02:38:15.250Z,68.96
2019-06-20T02:39:15.236Z,68.99
2019-06-20T02:40:15.223Z,69.06
2019-06-20T02:41:15.211Z,68.46
2019-06-20T02:42:15.214Z,68.76
2019-06-20T02:43:15.188Z,68.86
2019-06-20T02:44:29.354Z,68.86
2019-06-20T02:45:16.167Z,69.19
2019-06-20T02:46:15.161Z,68.49
2019-06-20T02:47:15.177Z,69.09
2019-06-20T02:48:15.137Z,69.59
2019-06-20T02:49:15.151Z,69.69
2019-06-20T02:50:15.117Z,69.69
2019-06-20T02:51:15.101Z,69.79
2019-06-20T02:52:15.094Z,69.79
2019-06-20T02:53:15.083Z,70.19
2019-06-20T02:54:15.067Z,70.23
2019-06-20T02:55:15.123Z,70.53
2019-06-20T02:56:15.043Z,70.53
2019-06-20T02:57:15.039Z,70.53
2019-06-20T02:58:15.028Z,71.03
2019-06-20T02:59:15.020Z,70.93
2019-06-20T03:00:15.003Z,70.62
2019-06-20T03:01:15.011Z,70.62
2019-06-20T03:02:14.983Z,71.12
2019-06-20T03:03:14.995Z,71.12
2019-06-20T03:04:14.976Z,70.53
2019-06-20T03:05:14.961Z,70.43
2019-06-20T03:06:14.950Z,70.59
2019-06-20T03:07:14.932Z,70.29
2019-06-20T03:08:14.918Z,71.09
2019-06-20T03:09:14.909Z,70.89
2019-06-20T03:10:14.907Z,70.69
2019-06-20T03:11:14.889Z,71.23
2019-06-20T03:12:14.871Z,72.13
2019-06-20T03:13:14.866Z,71.93
2019-06-20T03:14:14.851Z,72.66
2019-06-20T03:15:14.861Z,72.83
2019-06-20T03:16:14.832Z,73.16
2019-06-20T03:17:14.822Z,72.83
2019-06-20T03:18:14.811Z,72.53
2019-06-20T03:19:14.834Z,73.13
2019-06-20T03:20:14.794Z,72.13
2019-06-20T03:21:14.780Z,72.23
2019-06-20T03:22:14.767Z,72.77
2019-06-20T03:23:14.771Z,73.36
2019-06-20T03:24:14.742Z,73.16
2019-06-20T03:25:14.738Z,73.67
2019-06-20T03:26:14.736Z,72.83
2019-06-20T03:27:14.720Z,73.03
2019-06-20T03:28:14.723Z,72.73
2019-06-20T03:29:14.686Z,72.77
2019-06-20T03:30:14.684Z,72.33
2019-06-20T03:31:14.699Z,73.13
2019-06-20T03:32:14.659Z,72.13
2019-06-20T03:33:14.646Z,72.03
2019-06-20T03:34:14.634Z,71.93
2019-06-20T03:35:14.628Z,71.93
2019-06-20T03:36:14.627Z,71.69
2019-06-20T03:37:14.613Z,71.69
2019-06-20T03:38:14.609Z,71.73
2019-06-20T03:39:14.587Z,72.23
2019-06-20T03:40:14.576Z,71.83
2019-06-20T03:41:14.559Z,72.13
2019-06-20T03:42:14.566Z,71.73
2019-06-20T03:43:14.545Z,71.80
2019-06-20T03:44:14.527Z,71.50
2019-06-20T03:45:14.523Z,71.69
2019-06-20T03:46:14.508Z,70.69
2019-06-20T03:47:14.522Z,70.29
2019-06-20T03:48:14.487Z,70.59
2019-06-20T03:49:14.471Z,70.66
2019-06-20T03:50:14.459Z,70.46
2019-06-20T03:51:14.453Z,70.26
2019-06-20T03:52:14.436Z,70.06
2019-06-20T03:53:14.449Z,70.03
2019-06-20T03:54:14.420Z,69.43
2019-06-20T03:55:14.413Z,70.03
2019-06-20T03:56:14.397Z,68.79
2019-06-20T03:57:14.409Z,68.79
2019-06-20T03:58:14.382Z,68.09
2019-06-20T03:59:14.368Z,68.16
2019-06-20T04:00:14.358Z,68.06
2019-06-20T04:01:14.347Z,67.36
2019-06-20T04:02:14.368Z,66.46
2019-06-20T04:03:14.317Z,66.23
2019-06-20T04:04:14.307Z,66.73
2019-06-20T04:05:14.295Z,67.13
2019-06-20T04:06:14.290Z,66.53
2019-06-20T04:07:14.280Z,65.43
2019-06-20T04:08:14.287Z,65.93
2019-06-20T04:09:14.254Z,65.83
2019-06-20T04:10:14.304Z,65.53
2019-06-20T04:11:14.235Z,65.23
2019-06-20T04:12:14.224Z,65.40
2019-06-20T04:13:14.222Z,65.30
2019-06-20T04:14:14.210Z,65.40
2019-06-20T04:15:19.165Z,64.70
2019-06-20T04:16:15.174Z,64.67
2019-06-20T04:17:14.170Z,64.87
2019-06-20T04:18:14.157Z,64.17
2019-06-20T04:19:14.167Z,64.57
2019-06-20T04:20:14.163Z,63.87
2019-06-20T04:21:14.120Z,63.87
2019-06-20T04:22:14.114Z,64.27
2019-06-20T04:23:14.097Z,63.64
2019-06-20T04:24:14.109Z,63.34
2019-06-20T04:25:14.083Z,62.84
2019-06-20T04:26:14.070Z,63.11
2019-06-20T04:27:14.058Z,62.31
2019-06-20T04:28:14.051Z,62.12
2019-06-20T04:29:14.059Z,61.09
2019-06-20T04:30:14.027Z,61.09
2019-06-20T04:31:14.016Z,60.46
2019-06-20T04:32:13.998Z,59.56
2019-06-20T04:33:13.997Z,59.94
2019-06-20T04:34:13.983Z,59.34
2019-06-20T04:35:13.989Z,59.04
2019-06-20T04:36:13.961Z,58.84
2019-06-20T04:37:13.950Z,58.41
2019-06-20T04:38:13.933Z,58.31
2019-06-20T04:39:19.306Z,58.31
2019-06-20T04:40:14.945Z,58.01
2019-06-20T04:41:13.899Z,58.22
2019-06-20T04:42:13.898Z,57.82
2019-06-20T04:43:13.896Z,58.01
2019-06-20T04:44:13.875Z,57.82
2019-06-20T04:45:13.857Z,58.22
2019-06-20T04:46:13.848Z,58.41
2019-06-20T04:47:13.840Z,58.22
2019-06-20T04:48:13.835Z,58.44
2019-06-20T04:49:13.820Z,58.22
2019-06-20T04:50:13.803Z,58.11
2019-06-20T04:51:13.834Z,58.31
2019-06-20T04:52:13.786Z,57.52
2019-06-20T04:53:13.821Z,57.59
2019-06-20T04:54:13.761Z,58.58
2019-06-20T04:55:13.757Z,58.31
2019-06-20T04:56:13.739Z,59.01
2019-06-20T04:57:13.755Z,58.71
2019-06-20T04:58:13.724Z,58.51
2019-06-20T04:59:13.713Z,58.51
2019-06-20T05:00:13.702Z,58.51
2019-06-20T05:01:13.685Z,58.41
2019-06-20T05:02:14.994Z,58.18
2019-06-20T05:03:13.664Z,57.19
2019-06-20T05:04:13.689Z,57.09
2019-06-20T05:05:13.962Z,57.59
2019-06-20T05:06:13.637Z,58.48
2019-06-20T05:07:13.621Z,58.28
2019-06-20T05:08:13.617Z,59.48
2019-06-20T05:09:13.607Z,59.78
2019-06-20T05:10:13.617Z,59.78
2019-06-20T05:11:13.586Z,59.88
2019-06-20T05:12:13.574Z,59.25
2019-06-20T05:13:13.565Z,58.56
2019-06-20T05:14:13.607Z,59.22
2019-06-20T05:15:13.537Z,58.53
2019-06-20T05:16:13.530Z,58.45
2019-06-20T05:17:13.516Z,58.06
2019-06-20T05:18:13.509Z,58.13
2019-06-20T05:19:13.509Z,58.13
2019-06-20T05:20:13.499Z,58.73
2019-06-20T05:21:13.477Z,58.06
2019-06-20T05:22:13.474Z,58.33
2019-06-20T05:23:13.451Z,58.36
2019-06-20T05:24:13.441Z,58.36
2019-06-20T05:25:13.443Z,58.95
2019-06-20T05:26:13.425Z,58.58
2019-06-20T05:27:13.412Z,58.98
2019-06-20T05:28:13.403Z,59.38
2019-06-20T05:29:13.392Z,59.91
2019-06-20T05:30:13.423Z,60.40
2019-06-20T05:31:13.373Z,60.93
2019-06-20T05:32:13.361Z,61.69
2019-06-20T05:33:13.356Z,60.90
2019-06-20T05:34:13.345Z,60.21
2019-06-20T05:35:13.327Z,60.11
2019-06-20T05:36:13.345Z,60.50
2019-06-20T05:37:13.308Z,60.00
2019-06-20T05:38:13.303Z,59.18
2019-06-20T05:39:13.293Z,60.17
2019-06-20T05:40:13.274Z,59.58
2019-06-20T05:41:13.288Z,60.77
2019-06-20T05:42:13.259Z,59.98
2019-06-20T05:43:13.247Z,61.17
2019-06-20T05:44:13.241Z,61.50
2019-06-20T05:45:13.217Z,61.50
2019-06-20T05:46:13.213Z,61.40
2019-06-20T05:47:14.115Z,61.20
2019-06-20T05:48:13.191Z,61.00
2019-06-20T05:49:13.180Z,61.72
2019-06-20T05:50:13.289Z,62.82
2019-06-20T05:51:13.232Z,62.75
2019-06-20T05:52:13.143Z,62.95
2019-06-20T05:53:13.151Z,62.45
2019-06-20T05:54:13.119Z,62.55
2019-06-20T05:55:13.118Z,63.42
2019-06-20T05:56:13.099Z,64.01
2019-06-20T05:57:13.084Z,62.82
2019-06-20T05:58:13.102Z,63.62
2019-06-20T05:59:13.082Z,62.95
2019-06-20T06:00:13.066Z,63.78
2019-06-20T06:01:13.043Z,64.28
2019-06-20T06:02:13.032Z,64.58
2019-06-20T06:03:13.831Z,65.37
2019-06-20T06:04:13.015Z,65.27
2019-06-20T06:05:13.006Z,65.27
2019-06-20T06:06:12.992Z,64.34
2019-06-20T06:07:14.252Z,64.25
2019-06-20T06:08:12.979Z,65.37
2019-06-20T06:09:12.956Z,65.37
2019-06-20T06:10:12.985Z,65.27
2019-06-20T06:11:12.941Z,65.37
2019-06-20T06:12:12.919Z,66.30
2019-06-20T06:13:12.941Z,67.10
2019-06-20T06:14:13.874Z,67.60
2019-06-20T06:15:12.909Z,67.93
2019-06-20T06:16:25.635Z,70.03
2019-06-20T06:17:13.871Z,73.05
2019-06-20T06:18:14.124Z,74.79
2019-06-20T06:19:12.846Z,76.92
2019-06-20T06:20:12.840Z,78.36
2019-06-20T06:21:12.823Z,79.39
2019-06-20T06:22:12.817Z,79.03
2019-06-20T06:23:12.808Z,79.77
2019-06-20T06:24:12.803Z,80.97
2019-06-20T06:25:12.784Z,84.27
2019-06-20T06:26:12.769Z,85.71
2019-06-20T06:27:12.757Z,83.91
2019-06-20T06:28:12.852Z,85.25
2019-06-20T06:29:12.752Z,85.19
2019-06-20T06:30:12.727Z,85.94
2019-06-20T06:31:12.719Z,87.64
2019-06-20T06:32:12.703Z,88.29
2019-06-20T06:33:12.691Z,88.09
2019-06-20T06:34:12.687Z,88.09
2019-06-20T06:35:12.720Z,87.88
2019-06-20T06:36:12.667Z,88.73
2019-06-20T06:37:12.648Z,90.13
2019-06-20T06:38:12.635Z,88.12
2019-06-20T06:39:12.626Z,88.83
2019-06-20T06:40:12.622Z,89.43
2019-06-20T06:41:12.622Z,88.63
2019-06-20T06:42:12.593Z,90.44
2019-06-20T06:43:12.579Z,87.42
2019-06-20T06:44:12.582Z,87.73
2019-06-20T06:45:12.569Z,87.02
2019-06-20T06:46:12.552Z,87.77
2019-06-20T06:47:12.551Z,88.67
2019-06-20T06:48:12.527Z,89.33
2019-06-20T06:49:12.521Z,90.03
2019-06-20T06:50:12.504Z,90.33
2019-06-20T06:51:12.506Z,89.73
2019-06-20T06:52:12.487Z,88.63
2019-06-20T06:53:12.467Z,88.63
2019-06-20T06:54:12.456Z,87.88
2019-06-20T06:55:12.452Z,87.62
2019-06-20T06:56:12.448Z,87.82
2019-06-20T06:57:12.433Z,88.43
2019-06-20T06:58:12.423Z,88.23
2019-06-20T06:59:12.406Z,87.48
2019-06-20T07:00:12.394Z,86.52
2019-06-20T07:01:12.378Z,87.68
2019-06-20T07:02:12.368Z,86.82
2019-06-20T07:03:12.375Z,87.52
2019-06-20T07:04:12.352Z,87.32
2019-06-20T07:05:12.342Z,86.82
2019-06-20T07:06:12.325Z,87.42
2019-06-20T07:07:12.324Z,87.42
2019-06-20T07:08:12.317Z,87.32
2019-06-20T07:09:12.293Z,87.12
2019-06-20T07:10:12.288Z,85.82
2019-06-20T07:11:12.266Z,86.72
2019-06-20T07:12:12.262Z,85.22
2019-06-20T07:13:12.268Z,85.97
2019-06-20T07:14:12.246Z,86.68
2019-06-20T07:15:12.231Z,85.88
2019-06-20T07:16:12.217Z,86.14
2019-06-20T07:17:12.242Z,86.04
2019-06-20T07:18:12.208Z,84.93
2019-06-20T07:19:12.207Z,83.33
2019-06-20T07:20:15.127Z,84.09
2019-06-20T07:21:12.164Z,85.10
2019-06-20T07:22:12.182Z,83.35
2019-06-20T07:23:12.143Z,82.79
2019-06-20T07:24:12.168Z,81.74
2019-06-20T07:25:12.122Z,82.15
2019-06-20T07:26:12.110Z,81.85
2019-06-20T07:27:12.090Z,82.01
2019-06-20T07:28:12.078Z,81.81
2019-06-20T07:29:12.073Z,79.60
2019-06-20T07:30:12.078Z,81.27
2019-06-20T07:31:12.082Z,80.67
2019-06-20T07:32:12.044Z,80.33
2019-06-20T07:33:12.081Z,79.47
2019-06-20T07:34:12.019Z,78.36
2019-06-20T07:35:12.035Z,79.06
2019-06-20T07:36:11.997Z,80.67
2019-06-20T07:37:11.992Z,80.61
2019-06-20T07:38:11.977Z,80.17
2019-06-20T07:39:11.961Z,80.61
2019-06-20T07:40:11.971Z,79.41
2019-06-20T07:41:11.962Z,79.80
2019-06-20T07:42:11.939Z,80.51
2019-06-20T07:43:11.920Z,80.80
2019-06-20T07:44:11.930Z,80.21
2019-06-20T07:45:11.915Z,78.91
2019-06-20T07:46:11.903Z,78.60
2019-06-20T07:47:17.648Z,79.60
2019-06-20T07:48:12.860Z,79.60
2019-06-20T07:49:11.852Z,80.30
2019-06-20T07:50:11.844Z,79.50
2019-06-20T07:51:11.857Z,79.10
2019-06-20T07:52:11.817Z,79.60
2019-06-20T07:53:11.819Z,79.00
2019-06-20T07:54:11.811Z,79.30
2019-06-20T07:55:11.786Z,80.41
2019-06-20T07:56:11.795Z,79.60
2019-06-20T07:57:11.769Z,79.57
2019-06-20T07:58:11.755Z,78.56
2019-06-20T07:59:11.750Z,78.47
2019-06-20T08:00:11.738Z,79.00
2019-06-20T08:01:11.742Z,78.86
2019-06-20T08:02:11.712Z,78.67
2019-06-20T08:03:11.708Z,78.97
2019-06-20T08:04:11.688Z,79.17
2019-06-20T08:05:11.687Z,78.33
2019-06-20T08:06:11.675Z,78.13
2019-06-20T08:07:11.656Z,77.53
2019-06-20T08:08:11.656Z,78.23
2019-06-20T08:09:11.679Z,77.13
2019-06-20T08:10:11.645Z,76.93
2019-06-20T08:11:11.706Z,77.23
2019-06-20T08:12:11.616Z,76.83
2019-06-20T08:13:11.589Z,76.63
2019-06-20T08:14:11.584Z,76.43
2019-06-20T08:15:15.703Z,77.13
2019-06-20T08:16:11.559Z,76.73
2019-06-20T08:17:11.577Z,76.43
2019-06-20T08:18:11.536Z,75.73
2019-06-20T08:19:11.525Z,75.33
2019-06-20T08:20:11.525Z,76.03
2019-06-20T08:21:11.506Z,75.02
2019-06-20T08:22:11.497Z,74.39
2019-06-20T08:23:11.612Z,75.39
2019-06-20T08:24:11.470Z,74.79
2019-06-20T08:25:11.458Z,75.05
2019-06-20T08:26:11.453Z,74.76
2019-06-20T08:27:14.781Z,73.16
2019-06-20T08:28:11.429Z,73.16
2019-06-20T08:29:20.581Z,73.36
2019-06-20T08:30:12.402Z,72.96
2019-06-20T08:31:11.401Z,72.42
2019-06-20T08:32:11.452Z,72.72
2019-06-20T08:33:12.263Z,73.12
2019-06-20T08:34:11.360Z,72.49
2019-06-20T08:35:11.370Z,72.19
2019-06-20T08:36:11.360Z,71.49
2019-06-20T08:37:11.326Z,69.43
2019-06-20T08:38:11.320Z,67.07
2019-06-20T08:39:11.308Z,66.17
2019-06-20T08:40:11.315Z,66.83
2019-06-20T08:41:11.310Z,67.13
2019-06-20T08:42:11.284Z,67.43
2019-06-20T08:43:11.262Z,67.73
2019-06-20T08:44:11.254Z,66.94
2019-06-20T08:45:11.254Z,68.23
2019-06-20T08:46:11.227Z,65.61
2019-06-20T08:47:11.227Z,64.25
2019-06-20T08:48:11.207Z,63.46
2019-06-20T08:49:11.200Z,63.92
2019-06-20T08:50:11.226Z,63.23
2019-06-20T08:51:14.469Z,60.98
2019-06-20T08:52:11.176Z,60.36
2019-06-20T08:53:11.155Z,59.96
2019-06-20T08:54:11.146Z,59.74
2019-06-20T08:55:11.138Z,58.29
2019-06-20T08:56:11.140Z,56.95
2019-06-20T08:57:11.115Z,56.52
2019-06-20T08:58:11.099Z,55.70
2019-06-20T08:59:23.826Z,54.91
2019-06-20T09:00:12.081Z,54.52
2019-06-20T09:01:11.091Z,56.15
2019-06-20T09:02:11.070Z,57.17
2019-06-20T09:03:11.049Z,57.10
2019-06-20T09:04:11.040Z,57.62
2019-06-20T09:05:11.030Z,57.55
2019-06-20T09:06:11.037Z,57.75
2019-06-20T09:07:11.004Z,58.15
2019-06-20T09:08:11.817Z,59.36
2019-06-20T09:09:10.984Z,60.09
2019-06-20T09:10:10.970Z,59.92
2019-06-20T09:11:10.994Z,62.73
2019-06-20T09:12:10.954Z,63.92
2019-06-20T09:13:10.940Z,65.61
2019-06-20T09:14:10.929Z,67.40
2019-06-20T09:15:10.921Z,67.54
2019-06-20T09:16:23.982Z,67.54
2019-06-20T09:17:11.921Z,67.33
2019-06-20T09:18:10.892Z,67.33
2019-06-20T09:19:10.872Z,67.63
2019-06-20T09:20:10.866Z,66.57
2019-06-20T09:21:10.855Z,66.57
2019-06-20T09:22:10.851Z,66.87
2019-06-20T09:23:10.858Z,65.18
2019-06-20T09:24:10.828Z,65.38
2019-06-20T09:25:10.810Z,65.18
2019-06-20T09:26:10.807Z,63.95
2019-06-20T09:27:10.814Z,63.33
2019-06-20T09:28:10.790Z,62.40
2019-06-20T09:29:10.770Z,63.30
2019-06-20T09:30:10.760Z,62.40
2019-06-20T09:31:10.743Z,63.43
2019-06-20T09:32:10.755Z,62.53
2019-06-20T09:33:10.730Z,63.26
2019-06-20T09:34:10.730Z,62.79
2019-06-20T09:35:10.700Z,63.98
2019-06-20T09:36:10.697Z,64.22
2019-06-20T09:37:10.697Z,63.82
2019-06-20T09:38:10.672Z,62.82
2019-06-20T09:39:10.677Z,64.12
2019-06-20T09:40:10.666Z,64.15
2019-06-20T09:41:10.640Z,64.01
2019-06-20T09:42:10.629Z,62.96
2019-06-20T09:43:10.623Z,61.83
2019-06-20T09:44:10.627Z,62.34
2019-06-20T09:45:10.605Z,62.60
2019-06-20T09:46:10.589Z,62.21
2019-06-20T09:47:10.577Z,64.19
2019-06-20T09:48:10.559Z,63.63
2019-06-20T09:49:10.563Z,62.73
2019-06-20T09:50:10.573Z,63.16
2019-06-20T09:51:10.528Z,63.46
2019-06-20T09:52:10.555Z,63.98
2019-06-20T09:53:10.507Z,63.66
2019-06-20T09:54:10.494Z,64.09
2019-06-20T09:55:10.484Z,64.09
2019-06-20T09:56:10.499Z,63.98
2019-06-20T09:57:10.465Z,63.03
2019-06-20T09:58:10.457Z,63.00
2019-06-20T09:59:26.681Z,62.77
2019-06-20T10:00:11.523Z,62.24
2019-06-20T10:01:10.427Z,61.12
2019-06-20T10:02:10.413Z,60.80
2019-06-20T10:03:10.400Z,60.20
2019-06-20T10:04:10.396Z,60.13
2019-06-20T10:05:10.389Z,60.43
2019-06-20T10:06:13.903Z,61.22
2019-06-20T10:07:10.354Z,60.96
2019-06-20T10:08:10.348Z,61.05
2019-06-20T10:09:10.336Z,61.58
2019-06-20T10:10:10.335Z,62.27
2019-06-20T10:11:10.311Z,61.78
2019-06-20T10:12:10.325Z,60.85
2019-06-20T10:13:10.291Z,61.85
2019-06-20T10:14:10.284Z,61.25
2019-06-20T10:15:10.274Z,60.72
2019-06-20T10:16:10.265Z,59.55
2019-06-20T10:17:10.267Z,56.27
2019-06-20T10:18:10.237Z,53.59
2019-06-20T10:19:12.668Z,50.24
2019-06-20T10:20:10.221Z,49.62
2019-06-20T10:21:10.211Z,48.69
2019-06-20T10:22:10.226Z,48.10
2019-06-20T10:23:10.191Z,47.36
2019-06-20T10:24:10.214Z,47.44
2019-06-20T10:25:10.167Z,46.78
2019-06-20T10:26:10.167Z,47.02
2019-06-20T10:27:10.163Z,48.13
2019-06-20T10:28:10.168Z,48.03
2019-06-20T10:29:10.128Z,47.29
2019-06-20T10:30:14.243Z,47.51
2019-06-20T10:31:10.110Z,47.00
2019-06-20T10:32:10.131Z,46.19
2019-06-20T10:33:10.113Z,46.11
2019-06-20T10:34:10.082Z,47.09
2019-06-20T10:35:10.076Z,44.87
2019-06-20T10:36:10.064Z,45.04
2019-06-20T10:37:10.056Z,43.04
2019-06-20T10:38:10.049Z,46.18
2019-06-20T10:39:10.077Z,48.04
2019-06-20T10:40:10.036Z,50.29
2019-06-20T10:41:10.023Z,50.38
2019-06-20T10:42:10.009Z,51.32
2019-06-20T10:43:10.016Z,51.28
2019-06-20T10:44:10.034Z,51.97
2019-06-20T10:45:09.975Z,51.87
2019-06-20T10:46:09.971Z,52.54
2019-06-20T10:47:09.956Z,52.71
2019-06-20T10:48:09.944Z,51.52
2019-06-20T10:49:09.934Z,51.92
2019-06-20T10:50:09.948Z,51.54
2019-06-20T10:51:09.941Z,51.67
2019-06-20T10:52:09.908Z,52.76
2019-06-20T10:53:09.899Z,52.69
2019-06-20T10:54:09.940Z,52.98
2019-06-20T10:55:09.871Z,53.48
2019-06-20T10:56:09.891Z,52.88
2019-06-20T10:57:09.852Z,54.27
2019-06-20T10:58:09.846Z,53.01
2019-06-20T10:59:09.854Z,53.01
2019-06-20T11:00:09.844Z,53.48
2019-06-20T11:01:09.809Z,52.44
2019-06-20T11:02:09.811Z,49.96
2019-06-20T11:03:09.794Z,48.32
2019-06-20T11:04:09.781Z,47.21
2019-06-20T11:05:09.798Z,47.01
2019-06-20T11:06:09.756Z,46.89
2019-06-20T11:07:09.748Z,45.47
2019-06-20T11:08:09.752Z,44.85
2019-06-20T11:09:09.740Z,45.96
2019-06-20T11:10:09.719Z,47.04
2019-06-20T11:11:09.720Z,45.94
2019-06-20T11:12:09.703Z,44.36
2019-06-20T11:13:09.693Z,44.54
2019-06-20T11:14:09.684Z,44.34
2019-06-20T11:15:09.691Z,43.89
2019-06-20T11:16:09.674Z,44.40
2019-06-20T11:17:09.649Z,44.51
2019-06-20T11:18:09.646Z,44.92
2019-06-20T11:19:09.633Z,44.94
2019-06-20T11:20:09.621Z,45.87
2019-06-20T11:21:09.629Z,45.67
2019-06-20T11:22:09.606Z,46.47
2019-06-20T11:23:09.594Z,46.86
2019-06-20T11:24:09.580Z,47.06
2019-06-20T11:25:09.572Z,47.45
2019-06-20T11:26:09.583Z,47.13
2019-06-20T11:27:09.555Z,46.96
2019-06-20T11:28:09.545Z,47.85
2019-06-20T11:29:09.532Z,47.28
2019-06-20T11:30:09.525Z,47.69
2019-06-20T11:31:09.526Z,48.58
2019-06-20T11:32:09.525Z,47.89
2019-06-20T11:33:09.525Z,48.49
2019-06-20T11:34:09.477Z,47.67
2019-06-20T11:35:09.477Z,47.35
2019-06-20T11:36:09.543Z,47.65
2019-06-20T11:37:09.491Z,47.65
2019-06-20T11:38:09.440Z,47.75
2019-06-20T11:39:09.445Z,47.25
2019-06-20T11:40:09.416Z,48.16
2019-06-20T11:41:09.409Z,47.67
2019-06-20T11:42:09.411Z,48.19
2019-06-20T11:43:09.389Z,48.19
2019-06-20T11:44:09.397Z,49.52
2019-06-20T11:45:09.377Z,49.40
2019-06-20T11:46:09.360Z,49.69
2019-06-20T11:47:09.348Z,48.49
2019-06-20T11:48:09.332Z,47.62
2019-06-20T11:49:09.328Z,47.91
2019-06-20T11:50:09.340Z,48.61
2019-06-20T11:51:09.307Z,48.31
2019-06-20T11:52:09.409Z,48.19
2019-06-20T11:53:09.285Z,47.40
2019-06-20T11:54:09.274Z,48.49
2019-06-20T11:55:09.264Z,48.80
2019-06-20T11:56:09.309Z,48.90
2019-06-20T11:57:09.245Z,48.41
2019-06-20T11:58:09.231Z,48.80
2019-06-20T11:59:09.246Z,47.91
2019-06-20T12:00:09.213Z,48.90
2019-06-20T12:01:09.197Z,48.43
2019-06-20T12:02:09.211Z,48.73
2019-06-20T12:03:09.175Z,49.22
2019-06-20T12:04:09.544Z,49.74
2019-06-20T12:05:09.160Z,49.42
2019-06-20T12:06:09.166Z,49.72
2019-06-20T12:07:09.139Z,48.73
2019-06-20T12:08:09.130Z,48.63
2019-06-20T12:09:09.155Z,48.73
2019-06-20T12:10:09.111Z,48.65
2019-06-20T12:11:09.095Z,48.97
2019-06-20T12:12:09.087Z,49.27
2019-06-20T12:13:09.083Z,49.05
2019-06-20T12:14:09.064Z,48.93
2019-06-20T12:15:09.069Z,48.21
2019-06-20T12:16:09.051Z,47.18
2019-06-20T12:17:09.034Z,46.56
2019-06-20T12:18:09.016Z,45.97
2019-06-20T12:19:09.006Z,45.46
2019-06-20T12:20:09.022Z,45.06
2019-06-20T12:21:09.004Z,45.56
2019-06-20T12:22:08.975Z,44.87
2019-06-20T12:23:08.968Z,44.45
2019-06-20T12:24:08.989Z,44.45
2019-06-20T12:25:08.951Z,44.35
2019-06-20T12:26:08.940Z,44.82
2019-06-20T12:27:08.932Z,43.86
2019-06-20T12:28:08.931Z,43.64
2019-06-20T12:29:08.901Z,43.84
2019-06-20T12:30:08.905Z,43.74
2019-06-20T12:31:18.888Z,43.93
2019-06-20T12:32:10.129Z,43.86
2019-06-20T12:33:08.866Z,44.47
2019-06-20T12:34:08.849Z,44.79
2019-06-20T12:35:08.855Z,45.40
2019-06-20T12:36:08.833Z,46.01
2019-06-20T12:37:08.823Z,46.31
2019-06-20T12:38:08.810Z,45.89
2019-06-20T12:39:08.798Z,45.28
2019-06-20T12:40:08.805Z,44.79
2019-06-20T12:41:08.780Z,44.96
2019-06-20T12:42:08.770Z,44.47
2019-06-20T12:43:08.781Z,44.84
2019-06-20T12:44:08.748Z,44.45
2019-06-20T12:45:08.743Z,45.04
2019-06-20T12:46:08.728Z,45.14
2019-06-20T12:47:08.717Z,44.65
2019-06-20T12:48:08.782Z,44.57
2019-06-20T12:49:08.708Z,44.55
2019-06-20T12:50:08.684Z,44.06
2019-06-20T12:51:08.670Z,44.15
2019-06-20T12:52:08.666Z,43.74